KCON/CON METAR and TAF weather

Enter ICAO airport designator
Station Type Date Time Source
KCON METAR 2022/01/19 19:51 UTC NOAA

KCON 191951Z AUTO 20005KT 10SM BKN060 OVC080 04/M04 A2984 RMK AO2 SLP109 T00441044


Station Type Date Time Source
KCON Decoded METAR 2022/01/19 19:51 UTC NOAA

Concord, Concord Municipal Airport, NH, United States (KCON) 43-11-43N 071-30-04W 103M
Jan 19, 2022 - 02:51 PM EST / 2022.01.19 1951 UTC
Wind: from the SSW (200 degrees) at 6 MPH (5 KT):0
Visibility: 10 mile(s):0
Sky conditions: overcast
Temperature: 39.9 F (4.4 C)
Dew Point: 24.1 F (-4.4 C)
Relative Humidity: 52%
Pressure (altimeter): 29.84 in. Hg (1010 hPa)
ob: KCON 191951Z AUTO 20005KT 10SM BKN060 OVC080 04/M04 A2984 RMK AO2 SLP109 T00441044
cycle: 20

Station Type Date Time Source
KCON TAF 2022/01/19 18:22 UTC NOAA

TAF KCON 191720Z 1918/2018 18009KT P6SM SCT060 OVC090
FM192200 21007KT P6SM OVC050
FM201300 29008KT P6SM BKN080

Example: see airport list